sensor_id;sensor_type;location;lat;lon;timestamp;P1;durP1;ratioP1;P2;durP2;ratioP2
40827;SDS011;26549;50.918;5.338;2023-02-03T00:01:12;11.57;;;3.45;;
40827;SDS011;26549;50.918;5.338;2023-02-03T00:03:38;3.53;;;1.70;;
40827;SDS011;26549;50.918;5.338;2023-02-03T00:06:04;7.47;;;2.95;;
40827;SDS011;26549;50.918;5.338;2023-02-03T00:08:30;4.93;;;2.78;;
40827;SDS011;26549;50.918;5.338;2023-02-03T00:10:57;9.60;;;2.85;;
40827;SDS011;26549;50.918;5.338;2023-02-03T00:13:23;13.35;;;3.47;;
40827;SDS011;26549;50.918;5.338;2023-02-03T00:15:50;8.20;;;2.35;;
40827;SDS011;26549;50.918;5.338;2023-02-03T00:18:16;11.20;;;2.25;;
40827;SDS011;26549;50.918;5.338;2023-02-03T00:20:42;4.32;;;2.13;;
40827;SDS011;26549;50.918;5.338;2023-02-03T00:23:09;5.65;;;1.90;;
40827;SDS011;26549;50.918;5.338;2023-02-03T00:25:36;3.90;;;2.33;;
40827;SDS011;26549;50.918;5.338;2023-02-03T00:28:03;8.05;;;2.65;;
40827;SDS011;26549;50.918;5.338;2023-02-03T00:30:29;6.55;;;1.60;;
40827;SDS011;26549;50.918;5.338;2023-02-03T00:32:57;6.63;;;2.03;;
40827;SDS011;26549;50.918;5.338;2023-02-03T00:35:23;6.40;;;1.73;;
40827;SDS011;26549;50.918;5.338;2023-02-03T00:37:50;4.47;;;1.67;;
40827;SDS011;26549;50.918;5.338;2023-02-03T00:40:17;6.28;;;1.65;;
40827;SDS011;26549;50.918;5.338;2023-02-03T00:42:43;5.15;;;1.98;;
40827;SDS011;26549;50.918;5.338;2023-02-03T00:45:09;5.70;;;2.28;;
40827;SDS011;26549;50.918;5.338;2023-02-03T00:47:35;5.25;;;2.40;;
40827;SDS011;26549;50.918;5.338;2023-02-03T00:50:01;6.28;;;1.80;;
40827;SDS011;26549;50.918;5.338;2023-02-03T00:52:26;4.57;;;1.75;;
40827;SDS011;26549;50.918;5.338;2023-02-03T00:54:52;6.18;;;1.60;;
40827;SDS011;26549;50.918;5.338;2023-02-03T00:57:18;5.82;;;1.65;;
40827;SDS011;26549;50.918;5.338;2023-02-03T00:59:43;3.88;;;1.50;;
40827;SDS011;26549;50.918;5.338;2023-02-03T01:02:09;7.25;;;1.98;;
40827;SDS011;26549;50.918;5.338;2023-02-03T01:04:35;5.78;;;1.70;;
40827;SDS011;26549;50.918;5.338;2023-02-03T01:07:01;6.88;;;2.13;;
40827;SDS011;26549;50.918;5.338;2023-02-03T01:09:27;5.38;;;1.48;;
40827;SDS011;26549;50.918;5.338;2023-02-03T01:11:52;6.97;;;1.92;;
40827;SDS011;26549;50.918;5.338;2023-02-03T01:14:18;11.00;;;2.28;;
40827;SDS011;26549;50.918;5.338;2023-02-03T01:16:44;4.60;;;2.17;;
40827;SDS011;26549;50.918;5.338;2023-02-03T01:19:10;6.97;;;2.05;;
40827;SDS011;26549;50.918;5.338;2023-02-03T01:21:35;5.28;;;1.65;;
40827;SDS011;26549;50.918;5.338;2023-02-03T01:24:01;6.30;;;2.05;;
40827;SDS011;26549;50.918;5.338;2023-02-03T01:26:27;4.80;;;1.73;;
40827;SDS011;26549;50.918;5.338;2023-02-03T01:28:54;8.35;;;2.33;;
40827;SDS011;26549;50.918;5.338;2023-02-03T01:31:30;7.10;;;1.85;;
40827;SDS011;26549;50.918;5.338;2023-02-03T01:34:03;6.72;;;2.05;;
40827;SDS011;26549;50.918;5.338;2023-02-03T01:36:30;5.35;;;1.83;;
40827;SDS011;26549;50.918;5.338;2023-02-03T01:38:58;11.63;;;2.20;;
40827;SDS011;26549;50.918;5.338;2023-02-03T01:41:25;3.17;;;1.77;;
40827;SDS011;26549;50.918;5.338;2023-02-03T01:43:56;8.32;;;2.03;;
40827;SDS011;26549;50.918;5.338;2023-02-03T01:46:27;5.85;;;2.92;;
40827;SDS011;26549;50.918;5.338;2023-02-03T01:49:03;4.82;;;1.63;;
40827;SDS011;26549;50.918;5.338;2023-02-03T01:51:36;8.20;;;2.10;;
40827;SDS011;26549;50.918;5.338;2023-02-03T01:54:05;5.60;;;1.80;;
40827;SDS011;26549;50.918;5.338;2023-02-03T01:56:35;9.57;;;2.17;;
40827;SDS011;26549;50.918;5.338;2023-02-03T01:59:04;6.03;;;2.42;;
40827;SDS011;26549;50.918;5.338;2023-02-03T02:01:31;10.88;;;2.83;;
40827;SDS011;26549;50.918;5.338;2023-02-03T02:03:58;5.72;;;2.30;;
40827;SDS011;26549;50.918;5.338;2023-02-03T02:06:27;4.55;;;2.05;;
40827;SDS011;26549;50.918;5.338;2023-02-03T02:08:53;6.00;;;2.03;;
40827;SDS011;26549;50.918;5.338;2023-02-03T02:11:21;12.23;;;2.10;;
40827;SDS011;26549;50.918;5.338;2023-02-03T02:13:48;7.88;;;2.50;;
40827;SDS011;26549;50.918;5.338;2023-02-03T02:25:21;5.68;;;1.60;;
40827;SDS011;26549;50.918;5.338;2023-02-03T02:30:58;3.40;;;1.75;;
40827;SDS011;26549;50.918;5.338;2023-02-03T02:33:35;6.82;;;1.88;;
40827;SDS011;26549;50.918;5.338;2023-02-03T02:36:29;5.50;;;1.92;;
40827;SDS011;26549;50.918;5.338;2023-02-03T02:39:37;2.50;;;2.17;;
40827;SDS011;26549;50.918;5.338;2023-02-03T02:45:15;7.97;;;2.10;;
40827;SDS011;26549;50.918;5.338;2023-02-03T02:47:46;8.55;;;2.33;;
40827;SDS011;26549;50.918;5.338;2023-02-03T02:50:19;5.95;;;2.10;;
40827;SDS011;26549;50.918;5.338;2023-02-03T02:55:19;4.68;;;1.70;;
40827;SDS011;26549;50.918;5.338;2023-02-03T02:57:59;7.82;;;2.20;;
40827;SDS011;26549;50.918;5.338;2023-02-03T03:00:33;7.18;;;1.95;;
40827;SDS011;26549;50.918;5.338;2023-02-03T03:03:14;11.85;;;2.55;;
40827;SDS011;26549;50.918;5.338;2023-02-03T03:05:55;6.05;;;1.75;;
40827;SDS011;26549;50.918;5.338;2023-02-03T03:08:35;12.70;;;2.17;;
40827;SDS011;26549;50.918;5.338;2023-02-03T03:11:05;6.25;;;2.00;;
40827;SDS011;26549;50.918;5.338;2023-02-03T03:13:33;7.15;;;2.03;;
40827;SDS011;26549;50.918;5.338;2023-02-03T03:16:06;4.80;;;2.40;;
40827;SDS011;26549;50.918;5.338;2023-02-03T03:21:52;8.80;;;1.75;;
40827;SDS011;26549;50.918;5.338;2023-02-03T03:24:28;5.22;;;1.45;;
40827;SDS011;26549;50.918;5.338;2023-02-03T03:27:00;6.68;;;1.75;;
40827;SDS011;26549;50.918;5.338;2023-02-03T03:29:39;5.70;;;1.42;;
40827;SDS011;26549;50.918;5.338;2023-02-03T03:32:09;9.13;;;1.73;;
40827;SDS011;26549;50.918;5.338;2023-02-03T03:34:35;9.15;;;1.63;;
40827;SDS011;26549;50.918;5.338;2023-02-03T03:39:50;4.75;;;1.75;;
40827;SDS011;26549;50.918;5.338;2023-02-03T03:45:15;7.75;;;1.63;;
40827;SDS011;26549;50.918;5.338;2023-02-03T03:47:55;3.95;;;1.65;;
40827;SDS011;26549;50.918;5.338;2023-02-03T03:50:32;6.15;;;1.67;;
40827;SDS011;26549;50.918;5.338;2023-02-03T03:53:02;8.43;;;1.60;;
40827;SDS011;26549;50.918;5.338;2023-02-03T03:55:30;7.47;;;1.63;;
40827;SDS011;26549;50.918;5.338;2023-02-03T03:57:59;4.57;;;1.80;;
40827;SDS011;26549;50.918;5.338;2023-02-03T04:00:32;4.70;;;1.13;;
40827;SDS011;26549;50.918;5.338;2023-02-03T04:03:01;9.43;;;2.50;;
40827;SDS011;26549;50.918;5.338;2023-02-03T04:05:32;6.25;;;1.60;;
40827;SDS011;26549;50.918;5.338;2023-02-03T04:07:58;7.05;;;1.15;;
40827;SDS011;26549;50.918;5.338;2023-02-03T04:10:32;6.47;;;1.70;;
40827;SDS011;26549;50.918;5.338;2023-02-03T04:13:02;7.70;;;1.40;;
40827;SDS011;26549;50.918;5.338;2023-02-03T04:15:29;6.43;;;1.20;;
40827;SDS011;26549;50.918;5.338;2023-02-03T04:17:56;9.02;;;1.35;;
40827;SDS011;26549;50.918;5.338;2023-02-03T04:20:25;7.55;;;1.13;;
40827;SDS011;26549;50.918;5.338;2023-02-03T04:22:55;5.10;;;2.13;;
40827;SDS011;26549;50.918;5.338;2023-02-03T04:25:21;4.13;;;1.55;;
40827;SDS011;26549;50.918;5.338;2023-02-03T04:27:47;8.35;;;1.63;;
40827;SDS011;26549;50.918;5.338;2023-02-03T04:30:13;6.57;;;1.30;;
40827;SDS011;26549;50.918;5.338;2023-02-03T04:32:39;3.60;;;1.17;;
40827;SDS011;26549;50.918;5.338;2023-02-03T04:35:06;3.45;;;1.05;;
40827;SDS011;26549;50.918;5.338;2023-02-03T04:37:32;3.33;;;1.45;;
40827;SDS011;26549;50.918;5.338;2023-02-03T04:39:58;11.05;;;3.17;;
40827;SDS011;26549;50.918;5.338;2023-02-03T04:42:25;5.80;;;1.60;;
40827;SDS011;26549;50.918;5.338;2023-02-03T04:44:51;6.25;;;1.33;;
40827;SDS011;26549;50.918;5.338;2023-02-03T04:47:17;5.75;;;1.25;;
40827;SDS011;26549;50.918;5.338;2023-02-03T04:49:43;8.35;;;1.75;;
40827;SDS011;26549;50.918;5.338;2023-02-03T04:52:10;8.20;;;1.58;;
40827;SDS011;26549;50.918;5.338;2023-02-03T04:54:36;2.95;;;1.48;;
40827;SDS011;26549;50.918;5.338;2023-02-03T04:57:03;6.88;;;1.52;;
40827;SDS011;26549;50.918;5.338;2023-02-03T04:59:29;4.32;;;1.98;;
40827;SDS011;26549;50.918;5.338;2023-02-03T05:01:55;7.00;;;1.33;;
40827;SDS011;26549;50.918;5.338;2023-02-03T05:04:21;6.28;;;2.17;;
40827;SDS011;26549;50.918;5.338;2023-02-03T05:06:47;4.32;;;1.30;;
40827;SDS011;26549;50.918;5.338;2023-02-03T05:09:14;6.93;;;1.55;;
40827;SDS011;26549;50.918;5.338;2023-02-03T05:11:40;5.70;;;1.20;;
40827;SDS011;26549;50.918;5.338;2023-02-03T05:14:06;4.20;;;1.25;;
40827;SDS011;26549;50.918;5.338;2023-02-03T05:16:31;7.97;;;2.03;;
40827;SDS011;26549;50.918;5.338;2023-02-03T05:18:57;8.50;;;1.60;;
40827;SDS011;26549;50.918;5.338;2023-02-03T05:21:23;4.05;;;1.40;;
40827;SDS011;26549;50.918;5.338;2023-02-03T05:23:49;8.57;;;1.40;;
40827;SDS011;26549;50.918;5.338;2023-02-03T05:26:15;6.45;;;1.40;;
40827;SDS011;26549;50.918;5.338;2023-02-03T05:28:41;5.22;;;2.05;;
40827;SDS011;26549;50.918;5.338;2023-02-03T05:31:06;3.67;;;1.30;;
40827;SDS011;26549;50.918;5.338;2023-02-03T05:33:32;6.88;;;1.52;;
40827;SDS011;26549;50.918;5.338;2023-02-03T05:35:58;5.75;;;1.05;;
40827;SDS011;26549;50.918;5.338;2023-02-03T05:38:24;5.88;;;1.60;;
40827;SDS011;26549;50.918;5.338;2023-02-03T05:40:50;4.65;;;1.20;;
40827;SDS011;26549;50.918;5.338;2023-02-03T05:43:36;3.00;;;1.13;;
40827;SDS011;26549;50.918;5.338;2023-02-03T05:46:05;3.63;;;0.85;;
40827;SDS011;26549;50.918;5.338;2023-02-03T05:48:31;3.20;;;1.08;;
40827;SDS011;26549;50.918;5.338;2023-02-03T05:50:58;8.70;;;2.22;;
40827;SDS011;26549;50.918;5.338;2023-02-03T05:53:24;4.35;;;1.13;;
40827;SDS011;26549;50.918;5.338;2023-02-03T05:55:51;3.60;;;1.10;;
40827;SDS011;26549;50.918;5.338;2023-02-03T05:58:17;3.05;;;1.02;;
40827;SDS011;26549;50.918;5.338;2023-02-03T06:00:43;5.70;;;1.02;;
40827;SDS011;26549;50.918;5.338;2023-02-03T06:03:09;4.45;;;1.10;;
40827;SDS011;26549;50.918;5.338;2023-02-03T06:05:35;6.20;;;1.90;;
40827;SDS011;26549;50.918;5.338;2023-02-03T06:08:05;5.03;;;1.80;;
40827;SDS011;26549;50.918;5.338;2023-02-03T06:10:33;5.45;;;1.50;;
40827;SDS011;26549;50.918;5.338;2023-02-03T06:12:58;5.38;;;1.13;;
40827;SDS011;26549;50.918;5.338;2023-02-03T06:15:31;6.00;;;2.28;;
40827;SDS011;26549;50.918;5.338;2023-02-03T06:17:57;5.63;;;1.08;;
40827;SDS011;26549;50.918;5.338;2023-02-03T06:20:22;6.07;;;1.15;;
40827;SDS011;26549;50.918;5.338;2023-02-03T06:22:48;6.28;;;1.10;;
40827;SDS011;26549;50.918;5.338;2023-02-03T06:25:14;3.63;;;1.70;;
40827;SDS011;26549;50.918;5.338;2023-02-03T06:27:40;2.92;;;0.90;;
40827;SDS011;26549;50.918;5.338;2023-02-03T06:30:08;6.05;;;1.30;;
40827;SDS011;26549;50.918;5.338;2023-02-03T06:32:35;2.65;;;0.80;;
40827;SDS011;26549;50.918;5.338;2023-02-03T06:35:01;6.55;;;1.60;;
40827;SDS011;26549;50.918;5.338;2023-02-03T06:37:27;3.22;;;0.88;;
40827;SDS011;26549;50.918;5.338;2023-02-03T06:39:53;4.13;;;1.10;;
40827;SDS011;26549;50.918;5.338;2023-02-03T06:42:18;4.93;;;1.30;;
40827;SDS011;26549;50.918;5.338;2023-02-03T06:44:44;7.68;;;1.48;;
40827;SDS011;26549;50.918;5.338;2023-02-03T06:47:11;5.82;;;1.05;;
40827;SDS011;26549;50.918;5.338;2023-02-03T06:49:37;3.95;;;1.10;;
40827;SDS011;26549;50.918;5.338;2023-02-03T06:52:02;3.03;;;0.98;;
40827;SDS011;26549;50.918;5.338;2023-02-03T06:54:28;5.80;;;1.08;;
40827;SDS011;26549;50.918;5.338;2023-02-03T06:56:55;5.35;;;1.05;;
40827;SDS011;26549;50.918;5.338;2023-02-03T06:59:21;5.03;;;1.65;;
40827;SDS011;26549;50.918;5.338;2023-02-03T07:01:47;2.20;;;1.10;;
40827;SDS011;26549;50.918;5.338;2023-02-03T07:04:12;4.85;;;1.00;;
40827;SDS011;26549;50.918;5.338;2023-02-03T07:06:38;5.82;;;1.50;;
40827;SDS011;26549;50.918;5.338;2023-02-03T07:09:04;6.15;;;1.20;;
40827;SDS011;26549;50.918;5.338;2023-02-03T07:11:30;3.55;;;2.38;;
40827;SDS011;26549;50.918;5.338;2023-02-03T07:13:56;2.83;;;1.02;;
40827;SDS011;26549;50.918;5.338;2023-02-03T07:16:22;1.75;;;1.15;;
40827;SDS011;26549;50.918;5.338;2023-02-03T07:18:49;6.22;;;1.40;;
40827;SDS011;26549;50.918;5.338;2023-02-03T07:21:14;6.05;;;2.13;;
40827;SDS011;26549;50.918;5.338;2023-02-03T07:23:40;5.43;;;0.80;;
40827;SDS011;26549;50.918;5.338;2023-02-03T07:26:06;3.30;;;1.13;;
40827;SDS011;26549;50.918;5.338;2023-02-03T07:28:34;4.88;;;1.60;;
40827;SDS011;26549;50.918;5.338;2023-02-03T07:31:00;3.25;;;1.08;;
40827;SDS011;26549;50.918;5.338;2023-02-03T07:33:28;5.55;;;1.60;;
40827;SDS011;26549;50.918;5.338;2023-02-03T07:35:56;5.57;;;0.98;;
40827;SDS011;26549;50.918;5.338;2023-02-03T07:38:23;3.33;;;1.20;;
40827;SDS011;26549;50.918;5.338;2023-02-03T07:40:49;2.60;;;0.85;;
40827;SDS011;26549;50.918;5.338;2023-02-03T07:43:15;4.60;;;1.10;;
40827;SDS011;26549;50.918;5.338;2023-02-03T07:45:41;4.45;;;1.10;;
40827;SDS011;26549;50.918;5.338;2023-02-03T07:48:07;4.03;;;1.00;;
40827;SDS011;26549;50.918;5.338;2023-02-03T07:50:33;2.33;;;1.33;;
40827;SDS011;26549;50.918;5.338;2023-02-03T07:52:59;7.50;;;1.27;;
40827;SDS011;26549;50.918;5.338;2023-02-03T07:55:25;4.07;;;1.00;;
40827;SDS011;26549;50.918;5.338;2023-02-03T07:57:54;5.78;;;1.55;;
40827;SDS011;26549;50.918;5.338;2023-02-03T08:00:21;4.18;;;1.48;;
40827;SDS011;26549;50.918;5.338;2023-02-03T08:02:47;8.52;;;1.25;;
40827;SDS011;26549;50.918;5.338;2023-02-03T08:05:14;6.63;;;1.10;;
40827;SDS011;26549;50.918;5.338;2023-02-03T08:07:40;6.30;;;1.92;;
40827;SDS011;26549;50.918;5.338;2023-02-03T08:10:06;4.75;;;1.17;;
40827;SDS011;26549;50.918;5.338;2023-02-03T08:12:33;4.47;;;1.00;;
40827;SDS011;26549;50.918;5.338;2023-02-03T08:14:59;3.47;;;2.05;;
40827;SDS011;26549;50.918;5.338;2023-02-03T08:17:25;3.28;;;1.13;;
40827;SDS011;26549;50.918;5.338;2023-02-03T08:19:51;6.05;;;1.25;;
40827;SDS011;26549;50.918;5.338;2023-02-03T08:22:17;1.80;;;0.80;;
40827;SDS011;26549;50.918;5.338;2023-02-03T08:24:43;2.28;;;0.90;;
40827;SDS011;26549;50.918;5.338;2023-02-03T08:27:14;5.70;;;1.10;;
40827;SDS011;26549;50.918;5.338;2023-02-03T08:29:42;2.60;;;1.10;;
40827;SDS011;26549;50.918;5.338;2023-02-03T08:32:12;4.85;;;1.38;;
40827;SDS011;26549;50.918;5.338;2023-02-03T08:34:39;6.57;;;1.45;;
40827;SDS011;26549;50.918;5.338;2023-02-03T08:37:05;3.08;;;1.13;;
40827;SDS011;26549;50.918;5.338;2023-02-03T08:39:32;3.13;;;1.10;;
40827;SDS011;26549;50.918;5.338;2023-02-03T08:41:58;2.38;;;0.65;;
40827;SDS011;26549;50.918;5.338;2023-02-03T08:44:24;3.45;;;1.60;;
40827;SDS011;26549;50.918;5.338;2023-02-03T08:46:50;4.88;;;1.45;;
40827;SDS011;26549;50.918;5.338;2023-02-03T08:49:17;2.75;;;1.40;;
40827;SDS011;26549;50.918;5.338;2023-02-03T08:51:44;3.90;;;1.30;;
40827;SDS011;26549;50.918;5.338;2023-02-03T08:54:10;3.65;;;1.05;;
40827;SDS011;26549;50.918;5.338;2023-02-03T08:56:36;5.68;;;1.63;;
40827;SDS011;26549;50.918;5.338;2023-02-03T08:59:02;4.70;;;1.40;;
40827;SDS011;26549;50.918;5.338;2023-02-03T09:01:28;4.97;;;1.67;;
40827;SDS011;26549;50.918;5.338;2023-02-03T09:03:54;7.47;;;1.55;;
40827;SDS011;26549;50.918;5.338;2023-02-03T09:06:20;7.30;;;1.65;;
40827;SDS011;26549;50.918;5.338;2023-02-03T09:08:46;3.67;;;1.08;;
40827;SDS011;26549;50.918;5.338;2023-02-03T09:11:13;5.00;;;1.20;;
40827;SDS011;26549;50.918;5.338;2023-02-03T09:13:43;2.22;;;1.00;;
40827;SDS011;26549;50.918;5.338;2023-02-03T09:16:14;3.40;;;1.20;;
40827;SDS011;26549;50.918;5.338;2023-02-03T09:18:41;5.88;;;1.00;;
40827;SDS011;26549;50.918;5.338;2023-02-03T09:21:08;2.38;;;0.93;;
40827;SDS011;26549;50.918;5.338;2023-02-03T09:23:38;4.45;;;1.25;;
40827;SDS011;26549;50.918;5.338;2023-02-03T09:26:08;4.57;;;0.90;;
40827;SDS011;26549;50.918;5.338;2023-02-03T09:28:36;2.20;;;1.83;;
40827;SDS011;26549;50.918;5.338;2023-02-03T09:31:07;6.82;;;1.73;;
40827;SDS011;26549;50.918;5.338;2023-02-03T09:33:36;3.80;;;2.13;;
40827;SDS011;26549;50.918;5.338;2023-02-03T09:36:02;3.15;;;1.45;;
40827;SDS011;26549;50.918;5.338;2023-02-03T09:38:30;3.10;;;1.45;;
40827;SDS011;26549;50.918;5.338;2023-02-03T09:41:00;3.22;;;1.20;;
40827;SDS011;26549;50.918;5.338;2023-02-03T09:46:33;6.07;;;1.58;;
40827;SDS011;26549;50.918;5.338;2023-02-03T09:49:23;4.10;;;1.92;;
40827;SDS011;26549;50.918;5.338;2023-02-03T09:52:01;7.13;;;2.63;;
40827;SDS011;26549;50.918;5.338;2023-02-03T09:57:29;5.03;;;1.30;;
40827;SDS011;26549;50.918;5.338;2023-02-03T10:00:01;2.40;;;1.63;;
40827;SDS011;26549;50.918;5.338;2023-02-03T10:03:11;3.33;;;1.65;;
40827;SDS011;26549;50.918;5.338;2023-02-03T10:05:48;4.78;;;1.55;;
40827;SDS011;26549;50.918;5.338;2023-02-03T10:11:22;3.33;;;1.20;;
40827;SDS011;26549;50.918;5.338;2023-02-03T10:13:57;2.83;;;2.20;;
40827;SDS011;26549;50.918;5.338;2023-02-03T10:19:37;4.57;;;1.40;;
40827;SDS011;26549;50.918;5.338;2023-02-03T10:22:19;7.35;;;1.70;;
40827;SDS011;26549;50.918;5.338;2023-02-03T10:24:51;5.28;;;2.65;;
40827;SDS011;26549;50.918;5.338;2023-02-03T10:27:25;3.45;;;1.58;;
40827;SDS011;26549;50.918;5.338;2023-02-03T10:30:04;5.65;;;1.77;;
40827;SDS011;26549;50.918;5.338;2023-02-03T10:32:49;4.00;;;1.20;;
40827;SDS011;26549;50.918;5.338;2023-02-03T10:35:20;7.78;;;1.80;;
40827;SDS011;26549;50.918;5.338;2023-02-03T10:37:53;2.78;;;1.60;;
40827;SDS011;26549;50.918;5.338;2023-02-03T10:40:22;3.90;;;1.70;;
40827;SDS011;26549;50.918;5.338;2023-02-03T10:42:50;4.88;;;3.00;;
40827;SDS011;26549;50.918;5.338;2023-02-03T10:45:36;3.33;;;1.50;;
40827;SDS011;26549;50.918;5.338;2023-02-03T10:48:03;4.07;;;1.73;;
40827;SDS011;26549;50.918;5.338;2023-02-03T10:50:31;5.50;;;2.35;;
40827;SDS011;26549;50.918;5.338;2023-02-03T10:55:41;5.65;;;1.83;;
40827;SDS011;26549;50.918;5.338;2023-02-03T10:58:10;6.18;;;2.10;;
40827;SDS011;26549;50.918;5.338;2023-02-03T11:00:40;2.33;;;1.60;;
40827;SDS011;26549;50.918;5.338;2023-02-03T11:03:22;6.82;;;1.60;;
40827;SDS011;26549;50.918;5.338;2023-02-03T11:06:14;6.80;;;2.30;;
40827;SDS011;26549;50.918;5.338;2023-02-03T11:08:45;5.25;;;2.13;;
40827;SDS011;26549;50.918;5.338;2023-02-03T11:11:34;6.45;;;2.97;;
40827;SDS011;26549;50.918;5.338;2023-02-03T11:16:27;7.03;;;2.50;;
40827;SDS011;26549;50.918;5.338;2023-02-03T11:29:31;6.97;;;2.30;;
40827;SDS011;26549;50.918;5.338;2023-02-03T11:32:00;5.22;;;2.58;;
40827;SDS011;26549;50.918;5.338;2023-02-03T11:34:31;3.92;;;2.10;;
40827;SDS011;26549;50.918;5.338;2023-02-03T11:42:35;7.55;;;3.10;;
40827;SDS011;26549;50.918;5.338;2023-02-03T12:04:38;8.57;;;3.25;;
40827;SDS011;26549;50.918;5.338;2023-02-03T12:09:54;4.45;;;3.03;;
40827;SDS011;26549;50.918;5.338;2023-02-03T12:12:47;8.35;;;3.92;;
40827;SDS011;26549;50.918;5.338;2023-02-03T12:23:17;5.88;;;4.00;;
40827;SDS011;26549;50.918;5.338;2023-02-03T12:40:24;4.40;;;3.25;;
40827;SDS011;26549;50.918;5.338;2023-02-03T12:42:29;4.93;;;3.58;;
40827;SDS011;26549;50.918;5.338;2023-02-03T12:45:18;7.65;;;3.28;;
40827;SDS011;26549;50.918;5.338;2023-02-03T12:47:50;10.57;;;3.42;;
40827;SDS011;26549;50.918;5.338;2023-02-03T12:53:04;7.05;;;3.80;;
40827;SDS011;26549;50.918;5.338;2023-02-03T12:55:54;5.65;;;3.80;;
40827;SDS011;26549;50.918;5.338;2023-02-03T12:58:31;5.43;;;3.83;;
40827;SDS011;26549;50.918;5.338;2023-02-03T13:01:22;6.18;;;3.70;;
40827;SDS011;26549;50.918;5.338;2023-02-03T13:03:57;6.88;;;3.67;;
40827;SDS011;26549;50.918;5.338;2023-02-03T13:06:49;6.88;;;3.63;;
40827;SDS011;26549;50.918;5.338;2023-02-03T13:12:23;5.63;;;3.47;;
40827;SDS011;26549;50.918;5.338;2023-02-03T13:17:57;4.97;;;3.97;;
40827;SDS011;26549;50.918;5.338;2023-02-03T13:20:34;4.82;;;3.88;;
40827;SDS011;26549;50.918;5.338;2023-02-03T13:23:10;6.40;;;3.92;;
40827;SDS011;26549;50.918;5.338;2023-02-03T13:44:46;10.38;;;3.60;;
40827;SDS011;26549;50.918;5.338;2023-02-03T13:47:17;2.67;;;2.30;;
40827;SDS011;26549;50.918;5.338;2023-02-03T13:50:03;5.53;;;2.35;;
40827;SDS011;26549;50.918;5.338;2023-02-03T13:52:35;3.60;;;2.80;;
40827;SDS011;26549;50.918;5.338;2023-02-03T13:55:50;4.78;;;2.30;;
40827;SDS011;26549;50.918;5.338;2023-02-03T13:58:03;2.97;;;2.45;;
40827;SDS011;26549;50.918;5.338;2023-02-03T14:03:16;4.32;;;2.00;;
40827;SDS011;26549;50.918;5.338;2023-02-03T14:06:02;5.93;;;2.40;;
40827;SDS011;26549;50.918;5.338;2023-02-03T14:16:42;4.40;;;2.45;;
40827;SDS011;26549;50.918;5.338;2023-02-03T14:19:12;4.57;;;2.15;;
40827;SDS011;26549;50.918;5.338;2023-02-03T14:24:31;4.20;;;2.38;;
40827;SDS011;26549;50.918;5.338;2023-02-03T14:27:04;4.53;;;2.47;;
40827;SDS011;26549;50.918;5.338;2023-02-03T14:29:42;5.68;;;2.00;;
40827;SDS011;26549;50.918;5.338;2023-02-03T14:32:08;7.47;;;2.65;;
40827;SDS011;26549;50.918;5.338;2023-02-03T14:34:48;4.47;;;2.85;;
40827;SDS011;26549;50.918;5.338;2023-02-03T14:45:23;7.82;;;2.78;;
40827;SDS011;26549;50.918;5.338;2023-02-03T14:48:05;4.43;;;3.10;;
40827;SDS011;26549;50.918;5.338;2023-02-03T14:53:18;7.78;;;2.78;;
40827;SDS011;26549;50.918;5.338;2023-02-03T14:59:15;4.30;;;2.55;;
40827;SDS011;26549;50.918;5.338;2023-02-03T15:06:38;7.15;;;3.10;;
40827;SDS011;26549;50.918;5.338;2023-02-03T15:09:30;7.85;;;2.80;;
40827;SDS011;26549;50.918;5.338;2023-02-03T15:16:47;5.63;;;2.63;;
40827;SDS011;26549;50.918;5.338;2023-02-03T15:19:21;3.90;;;2.30;;
40827;SDS011;26549;50.918;5.338;2023-02-03T15:21:49;4.85;;;2.20;;
40827;SDS011;26549;50.918;5.338;2023-02-03T15:24:16;7.30;;;2.63;;
40827;SDS011;26549;50.918;5.338;2023-02-03T15:26:53;4.78;;;2.67;;
40827;SDS011;26549;50.918;5.338;2023-02-03T15:29:30;3.28;;;2.72;;
40827;SDS011;26549;50.918;5.338;2023-02-03T15:32:00;5.40;;;2.00;;
40827;SDS011;26549;50.918;5.338;2023-02-03T15:34:33;8.25;;;3.58;;
40827;SDS011;26549;50.918;5.338;2023-02-03T15:37:20;5.60;;;2.20;;
40827;SDS011;26549;50.918;5.338;2023-02-03T15:39:59;3.97;;;2.30;;
40827;SDS011;26549;50.918;5.338;2023-02-03T15:51:00;3.60;;;2.35;;
40827;SDS011;26549;50.918;5.338;2023-02-03T15:53:38;5.63;;;2.30;;
40827;SDS011;26549;50.918;5.338;2023-02-03T15:59:05;8.77;;;3.23;;
40827;SDS011;26549;50.918;5.338;2023-02-03T16:01:49;4.05;;;2.78;;
40827;SDS011;26549;50.918;5.338;2023-02-03T16:04:15;5.45;;;1.90;;
40827;SDS011;26549;50.918;5.338;2023-02-03T16:06:44;3.55;;;2.25;;
40827;SDS011;26549;50.918;5.338;2023-02-03T16:09:26;6.70;;;2.17;;
40827;SDS011;26549;50.918;5.338;2023-02-03T16:12:03;2.63;;;2.40;;
40827;SDS011;26549;50.918;5.338;2023-02-03T16:14:35;6.03;;;2.30;;
40827;SDS011;26549;50.918;5.338;2023-02-03T16:17:01;5.78;;;2.70;;
40827;SDS011;26549;50.918;5.338;2023-02-03T16:19:28;6.10;;;2.35;;
40827;SDS011;26549;50.918;5.338;2023-02-03T16:22:02;4.15;;;3.03;;
40827;SDS011;26549;50.918;5.338;2023-02-03T16:27:20;4.72;;;2.60;;
40827;SDS011;26549;50.918;5.338;2023-02-03T16:33:34;4.55;;;2.40;;
40827;SDS011;26549;50.918;5.338;2023-02-03T16:35:59;6.95;;;2.35;;
40827;SDS011;26549;50.918;5.338;2023-02-03T16:38:51;11.35;;;2.33;;
40827;SDS011;26549;50.918;5.338;2023-02-03T16:41:36;3.38;;;1.98;;
40827;SDS011;26549;50.918;5.338;2023-02-03T16:44:21;3.93;;;2.10;;
40827;SDS011;26549;50.918;5.338;2023-02-03T16:47:20;3.08;;;2.10;;
40827;SDS011;26549;50.918;5.338;2023-02-03T16:50:12;4.28;;;2.13;;
40827;SDS011;26549;50.918;5.338;2023-02-03T16:53:03;8.52;;;2.90;;
40827;SDS011;26549;50.918;5.338;2023-02-03T16:55:30;5.47;;;2.42;;
40827;SDS011;26549;50.918;5.338;2023-02-03T16:57:56;4.43;;;2.17;;
40827;SDS011;26549;50.918;5.338;2023-02-03T17:00:22;6.45;;;2.10;;
40827;SDS011;26549;50.918;5.338;2023-02-03T17:02:48;3.80;;;2.40;;
40827;SDS011;26549;50.918;5.338;2023-02-03T17:05:15;6.25;;;2.30;;
40827;SDS011;26549;50.918;5.338;2023-02-03T17:07:41;4.45;;;2.30;;
40827;SDS011;26549;50.918;5.338;2023-02-03T17:10:07;7.47;;;2.22;;
40827;SDS011;26549;50.918;5.338;2023-02-03T17:12:33;4.30;;;2.45;;
40827;SDS011;26549;50.918;5.338;2023-02-03T17:15:01;5.63;;;2.38;;
40827;SDS011;26549;50.918;5.338;2023-02-03T17:17:31;6.40;;;3.20;;
40827;SDS011;26549;50.918;5.338;2023-02-03T17:19:58;6.57;;;2.50;;
40827;SDS011;26549;50.918;5.338;2023-02-03T17:22:25;7.78;;;2.75;;
40827;SDS011;26549;50.918;5.338;2023-02-03T17:24:53;6.32;;;3.10;;
40827;SDS011;26549;50.918;5.338;2023-02-03T17:29:48;12.30;;;3.92;;
40827;SDS011;26549;50.918;5.338;2023-02-03T17:32:14;5.30;;;2.90;;
40827;SDS011;26549;50.918;5.338;2023-02-03T17:34:41;5.68;;;2.40;;
40827;SDS011;26549;50.918;5.338;2023-02-03T17:37:08;4.75;;;2.83;;
40827;SDS011;26549;50.918;5.338;2023-02-03T17:39:36;6.97;;;2.55;;
40827;SDS011;26549;50.918;5.338;2023-02-03T17:42:03;7.32;;;4.18;;
40827;SDS011;26549;50.918;5.338;2023-02-03T17:44:32;11.95;;;3.33;;
40827;SDS011;26549;50.918;5.338;2023-02-03T17:47:00;8.15;;;3.40;;
40827;SDS011;26549;50.918;5.338;2023-02-03T17:49:29;15.63;;;3.53;;
40827;SDS011;26549;50.918;5.338;2023-02-03T17:51:57;6.40;;;3.50;;
40827;SDS011;26549;50.918;5.338;2023-02-03T17:54:28;7.00;;;3.83;;
40827;SDS011;26549;50.918;5.338;2023-02-03T17:56:56;4.57;;;3.42;;
40827;SDS011;26549;50.918;5.338;2023-02-03T17:59:23;8.20;;;3.25;;
40827;SDS011;26549;50.918;5.338;2023-02-03T18:01:51;5.47;;;2.60;;
40827;SDS011;26549;50.918;5.338;2023-02-03T18:04:24;6.68;;;3.00;;
40827;SDS011;26549;50.918;5.338;2023-02-03T18:06:51;6.13;;;3.05;;
40827;SDS011;26549;50.918;5.338;2023-02-03T18:09:21;5.50;;;2.88;;
40827;SDS011;26549;50.918;5.338;2023-02-03T18:11:48;7.68;;;2.72;;
40827;SDS011;26549;50.918;5.338;2023-02-03T18:16:59;8.55;;;2.90;;
40827;SDS011;26549;50.918;5.338;2023-02-03T18:19:28;5.22;;;3.35;;